Redding Municipal Airport
KRDD : now visible

Airfield :











YOU CAN JOIN US ON...

 
LOGIN :

Register | Disclaimer

   EN    FR    IT 

 









Legend :    VFR   Marginal VFR   IFR   Intensive IFR   Very Intensive IFR
Visi :
Ceiling :
>= 8 km
>= 3000ft
5 to 8 km
1000 to 3000 ft
1500m to 5 km
500 to 1000 ft
800 to 1500m
200 to 500 ft
< 800m
< 200 ft
Symbols :   Thunderstorms  Fog  Heavy snow  Heavy precipitations  Wind > 20 kt






- Airport Elevation : 505 ft
- IATA code : RDD


KRDD - Redding Municipal

CURRENT METAR :
  • 021453Z 00000KT 8SM CLR M02/M04 A3028 RMK AO2 SLP255 T10171039 51003

EXPIRED METARs :
  • 021353Z AUTO 00000KT 6SM BR CLR M02/M04 A3027 RMK AO2 SLP253 T10171039
  • 021253Z 03003KT 7SM CLR M02/M04 A3028 RMK AO2 SLP254 T10171039

TAF KRDD
Valid from the 02 at 12:00 until the 03 at 12:00 UTC


021136Z 0212/0312 VRB04KT P6SM SCT250
FM031000 VRB04KT P6SM OVC100
KZOA FIR / North America



MET'MAP, your aeronautical weather chart ! - Copyright ORBIFLY December 2007 - Disclaimer

ORBIFLY MET'MAP TEAM :

Programming & Development : Alexandra Zaïnal
Original concept : Baudouin d'Aumeries
Technical & hardware support : Manuel Goepfert
Assistance : Marc-Olivier Méhu




SOURCES & CREDITS :

   NOAA       Earth
Advisory